createdAt,value
2018-01-05T01:18:25.342Z,98293
2018-01-05T01:20:56.362Z,98302
2018-01-05T01:23:27.489Z,98298
2018-01-05T01:25:57.115Z,98294
2018-01-05T01:28:30.341Z,98290
2018-01-05T01:31:02.896Z,98285
2018-01-05T01:40:53.104Z,98287
2018-01-05T01:43:36.277Z,98284
2018-01-05T01:46:10.965Z,98280
2018-01-05T06:06:05.210Z,98619
2018-01-05T06:08:33.640Z,98626
2018-01-05T06:11:05.314Z,98630
2018-01-05T06:13:44.852Z,98619
2018-01-05T06:16:14.580Z,98629
2018-01-05T06:18:42.921Z,98631
2018-01-05T06:21:11.196Z,98633
2018-01-05T06:23:39.485Z,98639
2018-01-05T06:26:08.514Z,98643
2018-01-05T06:28:37.033Z,98639
2018-01-05T06:31:12.037Z,98643
2018-01-05T06:33:41.082Z,98645
2018-01-05T06:36:09.468Z,98652
2018-01-05T06:38:37.830Z,98655
2018-01-05T06:41:06.312Z,98655
2018-01-05T06:43:34.594Z,98648
2018-01-05T06:46:02.803Z,98660
2018-01-05T06:48:31.058Z,98666
2018-01-05T06:50:59.421Z,98665
2018-01-05T06:53:27.752Z,98681
2018-01-05T06:55:55.994Z,98679
2018-01-05T06:58:24.282Z,98682
2018-01-05T07:00:52.519Z,98685
2018-01-05T07:03:20.765Z,98698
2018-01-05T07:05:50.255Z,98693
2018-01-05T07:08:19.780Z,98695
2018-01-05T07:10:48.058Z,98699
2018-01-05T07:13:17.325Z,98697
2018-01-05T07:15:46.202Z,98702
2018-01-05T07:18:14.886Z,98695
2018-01-05T07:20:43.194Z,98711
2018-01-05T07:23:11.427Z,98711
2018-01-05T07:25:39.648Z,98713
2018-01-05T07:28:08.765Z,98712
2018-01-05T07:30:37.043Z,98715
2018-01-05T07:33:05.581Z,98705
2018-01-05T07:35:33.898Z,98707
2018-01-05T07:38:02.159Z,98697
2018-01-05T07:40:31.140Z,98697
2018-01-05T07:43:00.175Z,98713
2018-01-05T07:45:28.415Z,98714
2018-01-05T07:47:56.700Z,98734
2018-01-05T07:50:25.052Z,98737
2018-01-05T07:52:56.220Z,98730
2018-01-05T07:55:24.685Z,98740
2018-01-05T07:57:53.983Z,98731
2018-01-05T08:00:22.399Z,98738
2018-01-05T08:02:51.370Z,98744
2018-01-05T08:05:19.646Z,98754
2018-01-05T08:07:48.121Z,98753
2018-01-05T08:10:18.936Z,98749
2018-01-05T08:12:49.152Z,98760
2018-01-05T08:15:17.643Z,98757
2018-01-05T08:17:46.527Z,98771
2018-01-05T08:20:15.418Z,98765
2018-01-05T08:22:44.150Z,98769
2018-01-05T08:25:12.744Z,98759
2018-01-05T08:27:41.052Z,98781
2018-01-05T08:30:09.587Z,98764
2018-01-05T08:32:38.096Z,98767
2018-01-05T08:35:06.549Z,98763
2018-01-05T08:37:35.012Z,98760
2018-01-05T08:40:04.101Z,98761
2018-01-05T08:42:32.375Z,98761
2018-01-05T08:45:01.423Z,98757
2018-01-05T08:47:29.840Z,98756
2018-01-05T08:49:58.093Z,98774
2018-01-05T08:52:26.344Z,98761
2018-01-05T08:54:54.791Z,98756
2018-01-05T08:57:23.796Z,98763
2018-01-05T08:59:52.104Z,98752
2018-01-05T09:02:20.826Z,98753
2018-01-05T09:04:51.080Z,98747
2018-01-05T09:07:19.689Z,98744
2018-01-05T09:09:51.057Z,98743
2018-01-05T09:12:21.136Z,98755
2018-01-05T09:14:53.576Z,98753
2018-01-05T09:17:24.517Z,98766
2018-01-05T09:19:54.696Z,98759
2018-01-05T09:22:23.592Z,98750
2018-01-05T09:24:53.931Z,98747
2018-01-05T09:27:22.990Z,98757
2018-01-05T09:29:51.259Z,98760
2018-01-05T09:32:19.537Z,98762
2018-01-05T09:34:47.820Z,98775
2018-01-05T09:37:17.406Z,98788
2018-01-05T09:39:45.804Z,98783
2018-01-05T09:42:14.402Z,98778
2018-01-05T09:44:42.837Z,98780
2018-01-05T09:47:11.288Z,98785
2018-01-05T09:49:39.552Z,98793
2018-01-05T09:52:07.813Z,98782
2018-01-05T09:54:36.187Z,98787
2018-01-05T09:57:04.430Z,98780
2018-01-05T09:59:32.697Z,98791
2018-01-05T10:02:01.953Z,98778
2018-01-05T10:04:30.223Z,98780
2018-01-05T10:06:58.470Z,98773
2018-01-05T10:09:26.760Z,98757
2018-01-05T10:11:55.006Z,98769
2018-01-05T10:14:23.491Z,98757
2018-01-05T10:16:51.778Z,98768
2018-01-05T10:19:20.045Z,98754
2018-01-05T10:21:48.277Z,98766
2018-01-05T10:24:16.569Z,98764
2018-01-05T10:26:45.620Z,98774
2018-01-05T10:29:13.846Z,98766
2018-01-05T10:31:42.876Z,98764
2018-01-05T10:34:11.254Z,98760
2018-01-05T10:36:40.402Z,98759
2018-01-05T10:39:08.761Z,98755
2018-01-05T10:41:37.232Z,98751
2018-01-05T10:44:05.711Z,98745
2018-01-05T10:46:34.103Z,98747
2018-01-05T10:49:02.408Z,98739
2018-01-05T10:51:30.933Z,98745
2018-01-05T10:53:59.208Z,98747
2018-01-05T10:56:27.724Z,98743
2018-01-05T10:58:57.057Z,98738
2018-01-05T11:01:26.882Z,98742
2018-01-05T11:03:55.276Z,98737
2018-01-05T11:06:23.578Z,98738
2018-01-05T11:08:51.867Z,98743
2018-01-05T11:11:20.139Z,98747
2018-01-05T11:13:48.499Z,98747
2018-01-05T11:16:17.047Z,98745
2018-01-05T11:18:45.450Z,98755
2018-01-05T11:21:14.673Z,98747
2018-01-05T11:23:43.123Z,98749
2018-01-05T11:26:11.709Z,98734
2018-01-05T11:28:39.988Z,98748
2018-01-05T11:31:08.309Z,98759
2018-01-05T11:33:36.672Z,98760
2018-01-05T11:36:04.948Z,98775
2018-01-05T11:38:33.237Z,98780
2018-01-05T11:41:01.611Z,98775
2018-01-05T11:43:30.713Z,98788
2018-01-05T11:45:59.965Z,98776
2018-01-05T11:48:28.251Z,98773
2018-01-05T11:50:56.545Z,98768
2018-01-05T11:53:24.828Z,98762
2018-01-05T11:55:53.088Z,98763
2018-01-05T11:58:21.326Z,98774
2018-01-05T12:00:49.610Z,98769
2018-01-05T12:03:17.846Z,98764
2018-01-05T12:05:46.180Z,98774
2018-01-05T12:08:14.842Z,98770
2018-01-05T12:10:43.943Z,98750
2018-01-05T12:13:13.588Z,98756
2018-01-05T12:15:42.013Z,98770
2018-01-05T12:18:10.940Z,98795
2018-01-05T12:20:40.422Z,98786
2018-01-05T12:23:08.778Z,98793
2018-01-05T12:25:37.272Z,98794
2018-01-05T12:28:05.569Z,98799
2018-01-05T12:30:33.870Z,98791
2018-01-05T12:33:02.283Z,98803
2018-01-05T12:35:30.879Z,98797
2018-01-05T12:38:00.941Z,98809
2018-01-05T12:40:29.560Z,98806
2018-01-05T12:42:58.946Z,98816
2018-01-05T12:45:29.607Z,98826
2018-01-05T12:47:58.908Z,98815
2018-01-05T12:50:29.058Z,98806
2018-01-05T12:53:00.120Z,98819
2018-01-05T12:55:29.076Z,98812
2018-01-05T12:57:58.557Z,98821
2018-01-05T13:00:28.994Z,98824
2018-01-05T13:02:57.441Z,98816
2018-01-05T13:05:25.831Z,98810
2018-01-05T13:07:54.855Z,98811
2018-01-05T13:10:23.174Z,98829
2018-01-05T13:12:51.537Z,98826
2018-01-05T13:15:20.170Z,98832
2018-01-05T13:17:48.462Z,98830
2018-01-05T13:20:16.926Z,98841
2018-01-05T13:22:45.984Z,98820
2018-01-05T13:25:14.522Z,98822
2018-01-05T13:27:42.920Z,98812
2018-01-05T13:30:12.654Z,98806
2018-01-05T13:32:41.240Z,98809
2018-01-05T13:35:09.584Z,98826
2018-01-05T13:37:37.846Z,98831
2018-01-05T13:40:06.129Z,98855
2018-01-05T13:42:34.556Z,98857
2018-01-05T13:45:02.966Z,98872
2018-01-05T13:47:39.260Z,98874
2018-01-05T13:50:07.628Z,98885
2018-01-05T13:52:35.998Z,98880
2018-01-05T13:55:07.222Z,98867
2018-01-05T13:57:37.804Z,98872
2018-01-05T14:00:07.445Z,98871
2018-01-05T14:02:36.474Z,98863
2018-01-05T14:05:04.752Z,98857
2018-01-05T14:07:33.036Z,98870
2018-01-05T14:10:01.299Z,98869
2018-01-05T14:12:29.568Z,98866
2018-01-05T14:14:58.046Z,98857
2018-01-05T14:17:26.286Z,98864
2018-01-05T14:19:54.534Z,98870
2018-01-05T14:22:54.440Z,98866
2018-01-05T14:25:37.239Z,98861
2018-01-05T14:31:07.522Z,98889
2018-01-05T14:36:28.082Z,98902
2018-01-05T14:41:46.938Z,98901
2018-01-05T14:44:17.056Z,98881
2018-01-05T14:46:46.067Z,98892
2018-01-05T14:49:20.103Z,98900
2018-01-05T14:51:48.385Z,98900
2018-01-05T14:54:16.674Z,98901
2018-01-05T14:56:45.059Z,98894
2018-01-05T14:59:13.729Z,98901
2018-01-05T15:01:42.026Z,98899
2018-01-05T15:04:10.311Z,98890
2018-01-05T15:06:39.623Z,98894
2018-01-05T15:28:04.372Z,98903
2018-01-05T15:30:46.743Z,98910
2018-01-05T15:33:19.185Z,98904
2018-01-05T15:36:00.386Z,98892
2018-01-05T15:38:50.032Z,98899
2018-01-05T15:44:48.540Z,98893
2018-01-05T16:39:40.418Z,98943
2018-01-05T16:42:09.624Z,98941
2018-01-05T16:44:39.269Z,98939
2018-01-05T16:49:53.999Z,98947
2018-01-05T16:52:26.230Z,98941
2018-01-05T16:54:56.096Z,98926
2018-01-05T17:00:29.515Z,98939
2018-01-05T17:03:02.438Z,98941
2018-01-05T17:05:33.900Z,98948
2018-01-05T17:08:04.208Z,98960
2018-01-05T17:10:35.809Z,98957
2018-01-05T17:13:05.500Z,98965
2018-01-05T17:15:34.171Z,98969
2018-01-05T17:18:03.609Z,98975
2018-01-05T17:20:32.072Z,98965
2018-01-05T17:23:04.310Z,98970
2018-01-05T17:25:33.839Z,98972
2018-01-05T17:28:03.327Z,98984
2018-01-05T17:30:31.889Z,98973
2018-01-05T17:33:04.738Z,98962
2018-01-05T17:35:33.729Z,98969
2018-01-05T17:38:02.084Z,98982
2018-01-05T17:40:31.816Z,98990
2018-01-05T17:43:00.494Z,98998
2018-01-05T17:45:29.083Z,98986
2018-01-05T17:47:57.830Z,99000
2018-01-05T17:50:26.642Z,98986
2018-01-05T17:52:55.012Z,98989
2018-01-05T17:55:26.421Z,99003
2018-01-05T17:58:07.966Z,99008
2018-01-05T18:00:37.134Z,99021
2018-01-05T18:03:05.627Z,99023
2018-01-05T18:05:37.235Z,99018
2018-01-05T18:08:06.559Z,99011
2018-01-05T18:10:34.920Z,99024
2018-01-05T18:13:04.160Z,99026
2018-01-05T18:15:32.429Z,99028
2018-01-05T18:18:00.725Z,99030
2018-01-05T18:20:29.087Z,99039
2018-01-05T18:22:57.404Z,99026
2018-01-05T18:25:25.752Z,99025
2018-01-05T18:27:54.085Z,99030
2018-01-05T18:30:23.098Z,99047
2018-01-05T18:32:51.389Z,99058
2018-01-05T18:35:19.757Z,99072
2018-01-05T18:37:47.997Z,99080
2018-01-05T18:40:16.340Z,99078
2018-01-05T18:42:44.719Z,99076
2018-01-05T18:45:12.990Z,99086
2018-01-05T18:47:41.445Z,99080
2018-01-05T18:50:09.768Z,99080
2018-01-05T18:52:38.073Z,99086
2018-01-05T18:55:07.148Z,99090
2018-01-05T18:57:36.223Z,99089
2018-01-05T19:00:04.509Z,99101
2018-01-05T19:02:33.592Z,99101
2018-01-05T19:05:01.950Z,99112
2018-01-05T19:07:30.205Z,99097
2018-01-05T19:09:58.487Z,99100
2018-01-05T19:12:26.878Z,99112
2018-01-05T19:14:55.256Z,99116
2018-01-05T19:17:23.760Z,99113
2018-01-05T19:19:52.066Z,99113
2018-01-05T19:22:20.922Z,99110
2018-01-05T19:24:50.214Z,99115
2018-01-05T19:27:22.941Z,99101
2018-01-05T19:29:57.261Z,99103
2018-01-05T19:32:28.628Z,99111
2018-01-05T19:35:00.013Z,99111
2018-01-05T19:37:29.027Z,99110
2018-01-05T19:39:57.943Z,99119
2018-01-05T19:42:27.964Z,99116
2018-01-05T19:44:59.697Z,99120
2018-01-05T19:47:28.236Z,99123
2018-01-05T19:49:56.534Z,99126
2018-01-05T19:52:24.815Z,99127
2018-01-05T19:54:53.072Z,99135
2018-01-05T19:57:21.343Z,99147
2018-01-05T19:59:49.713Z,99143
2018-01-05T20:02:18.726Z,99145
2018-01-05T20:04:46.951Z,99159
2018-01-05T20:07:15.269Z,99160
2018-01-05T20:09:43.510Z,99167
2018-01-05T20:12:11.807Z,99170
2018-01-05T20:14:40.084Z,99172
2018-01-05T20:17:08.343Z,99173
2018-01-05T20:19:36.628Z,99170
2018-01-05T20:22:04.939Z,99172
2018-01-05T20:24:33.311Z,99173
2018-01-05T20:27:01.590Z,99180
2018-01-05T20:29:29.945Z,99176
2018-01-05T20:31:58.164Z,99181
2018-01-05T20:34:26.421Z,99185
2018-01-05T20:36:54.990Z,99187
2018-01-05T20:39:23.251Z,99190
2018-01-05T20:41:51.523Z,99185
2018-01-05T20:44:19.818Z,99183
2018-01-05T20:46:48.058Z,99174
2018-01-05T20:49:16.302Z,99175
2018-01-05T20:51:44.572Z,99172
2018-01-05T20:54:12.816Z,99172
2018-01-05T20:56:41.067Z,99167
2018-01-05T20:59:10.146Z,99181
2018-01-05T21:01:38.406Z,99183
2018-01-05T21:04:06.673Z,99190
2018-01-05T21:06:36.033Z,99198
2018-01-05T21:09:05.911Z,99200
2018-01-05T21:11:36.434Z,99197
2018-01-05T21:14:08.915Z,99186
2018-01-05T21:16:39.795Z,99188
2018-01-05T21:19:10.803Z,99186
2018-01-05T21:21:40.022Z,99194
2018-01-05T21:24:09.210Z,99191
2018-01-05T21:26:37.528Z,99192
2018-01-05T21:29:08.326Z,99217
2018-01-05T21:31:42.969Z,99220
2018-01-05T21:34:19.885Z,99209
2018-01-05T21:36:54.603Z,99210
2018-01-05T21:39:30.888Z,99210
2018-01-05T21:42:05.254Z,99206
2018-01-05T21:47:36.324Z,99204
2018-01-05T21:50:08.155Z,99211
2018-01-05T21:52:39.025Z,99225
2018-01-05T21:55:09.384Z,99229
2018-01-05T21:57:39.904Z,99229
2018-01-05T22:00:12.426Z,99234
2018-01-05T22:17:27.540Z,99232
2018-01-05T22:20:22.800Z,99226
2018-01-05T22:46:58.550Z,99226
2018-01-05T22:53:06.443Z,99217
2018-01-05T22:55:45.166Z,99206
2018-01-05T23:04:14.700Z,99219
2018-01-05T23:07:10.306Z,99233
2018-01-05T23:10:05.529Z,99233
2018-01-05T23:22:09.074Z,99230
2018-01-05T23:24:56.588Z,99230
2018-01-05T23:54:21.062Z,99232
2018-01-05T23:57:00.900Z,99223
2018-01-05T23:59:49.042Z,99238
